Kowloon, China
Current Conditions -  °F | °C
As of 12:00 PM on Saturday 25 Oct 2014 (Local Time) from VHHH Reporting Station
Few Clouds Few Clouds  
Wind Chill: 82°   Ceiling: Unl
Heat Index: 85°   Visibility: 6mi
Dew Point: 68°   Wind: 13mph
Humidity: 62%   Direction: 100°E
Pressure: 30.03"   Gusts: NA
Location:  22.31°N, 114.18°E
Report Text: VHHH 250400Z 10011KT 9999 FEW025 28/20 Q1017 NOSIG
Loading
Personal Weather Stations






























Interactive Weather Map
Tropical Storm Tracking
New forecast layout! Learn more

10-Day Weather Forecast

Advertisements
Track Severe Weather on mobile